sensor_id;sensor_type;location;lat;lon;timestamp;P1;durP1;ratioP1;P2;durP2;ratioP2
37677;SDS011;23517;50.390;8.616;2023-05-07T00:01:33;2.25;;;1.20;;
37677;SDS011;23517;50.390;8.616;2023-05-07T00:04:00;1.48;;;1.10;;
37677;SDS011;23517;50.390;8.616;2023-05-07T00:06:27;2.28;;;1.30;;
37677;SDS011;23517;50.390;8.616;2023-05-07T00:08:56;4.40;;;1.50;;
37677;SDS011;23517;50.390;8.616;2023-05-07T00:11:23;3.88;;;1.10;;
37677;SDS011;23517;50.390;8.616;2023-05-07T00:13:50;2.83;;;1.20;;
37677;SDS011;23517;50.390;8.616;2023-05-07T00:16:17;2.22;;;1.20;;
37677;SDS011;23517;50.390;8.616;2023-05-07T00:18:44;2.97;;;1.48;;
37677;SDS011;23517;50.390;8.616;2023-05-07T00:21:11;1.80;;;1.20;;
37677;SDS011;23517;50.390;8.616;2023-05-07T00:23:37;5.22;;;1.35;;
37677;SDS011;23517;50.390;8.616;2023-05-07T00:26:04;1.80;;;1.25;;
37677;SDS011;23517;50.390;8.616;2023-05-07T00:28:31;3.50;;;1.38;;
37677;SDS011;23517;50.390;8.616;2023-05-07T00:30:57;4.30;;;1.50;;
37677;SDS011;23517;50.390;8.616;2023-05-07T00:33:24;1.10;;;1.00;;
37677;SDS011;23517;50.390;8.616;2023-05-07T00:35:52;4.03;;;1.20;;
37677;SDS011;23517;50.390;8.616;2023-05-07T00:38:20;1.10;;;1.00;;
37677;SDS011;23517;50.390;8.616;2023-05-07T00:40:46;3.15;;;1.20;;
37677;SDS011;23517;50.390;8.616;2023-05-07T00:43:16;3.17;;;1.45;;
37677;SDS011;23517;50.390;8.616;2023-05-07T00:45:43;3.05;;;1.48;;
37677;SDS011;23517;50.390;8.616;2023-05-07T00:48:09;3.78;;;1.35;;
37677;SDS011;23517;50.390;8.616;2023-05-07T00:50:36;7.53;;;2.05;;
37677;SDS011;23517;50.390;8.616;2023-05-07T00:53:03;5.55;;;1.45;;
37677;SDS011;23517;50.390;8.616;2023-05-07T00:55:30;1.88;;;1.00;;
37677;SDS011;23517;50.390;8.616;2023-05-07T00:57:57;3.60;;;1.45;;
37677;SDS011;23517;50.390;8.616;2023-05-07T01:00:23;1.88;;;1.42;;
37677;SDS011;23517;50.390;8.616;2023-05-07T01:02:51;3.45;;;1.20;;
37677;SDS011;23517;50.390;8.616;2023-05-07T01:05:18;2.63;;;1.40;;
37677;SDS011;23517;50.390;8.616;2023-05-07T01:07:49;3.22;;;1.40;;
37677;SDS011;23517;50.390;8.616;2023-05-07T01:10:17;2.78;;;1.20;;
37677;SDS011;23517;50.390;8.616;2023-05-07T01:12:44;4.72;;;1.30;;
37677;SDS011;23517;50.390;8.616;2023-05-07T01:15:13;2.97;;;1.55;;
37677;SDS011;23517;50.390;8.616;2023-05-07T01:17:40;2.58;;;1.20;;
37677;SDS011;23517;50.390;8.616;2023-05-07T01:20:08;5.63;;;1.50;;
37677;SDS011;23517;50.390;8.616;2023-05-07T01:22:39;2.08;;;1.42;;
37677;SDS011;23517;50.390;8.616;2023-05-07T01:25:06;1.30;;;1.20;;
37677;SDS011;23517;50.390;8.616;2023-05-07T01:27:34;1.58;;;1.40;;
37677;SDS011;23517;50.390;8.616;2023-05-07T01:30:03;1.20;;;1.10;;
37677;SDS011;23517;50.390;8.616;2023-05-07T01:35:18;7.97;;;1.58;;
37677;SDS011;23517;50.390;8.616;2023-05-07T01:37:48;1.58;;;1.40;;
37677;SDS011;23517;50.390;8.616;2023-05-07T01:40:16;1.92;;;1.30;;
37677;SDS011;23517;50.390;8.616;2023-05-07T01:42:43;2.28;;;1.42;;
37677;SDS011;23517;50.390;8.616;2023-05-07T01:45:10;1.52;;;1.42;;
37677;SDS011;23517;50.390;8.616;2023-05-07T01:47:37;3.95;;;1.50;;
37677;SDS011;23517;50.390;8.616;2023-05-07T01:50:05;6.15;;;1.55;;
37677;SDS011;23517;50.390;8.616;2023-05-07T01:52:37;2.47;;;1.30;;
37677;SDS011;23517;50.390;8.616;2023-05-07T01:55:05;2.55;;;1.50;;
37677;SDS011;23517;50.390;8.616;2023-05-07T01:57:32;1.58;;;1.45;;
37677;SDS011;23517;50.390;8.616;2023-05-07T01:59:59;4.18;;;1.40;;
37677;SDS011;23517;50.390;8.616;2023-05-07T02:02:25;1.77;;;1.30;;
37677;SDS011;23517;50.390;8.616;2023-05-07T02:04:52;4.07;;;1.30;;
37677;SDS011;23517;50.390;8.616;2023-05-07T02:07:19;3.83;;;1.25;;
37677;SDS011;23517;50.390;8.616;2023-05-07T02:09:45;2.25;;;1.17;;
37677;SDS011;23517;50.390;8.616;2023-05-07T02:12:12;4.32;;;1.63;;
37677;SDS011;23517;50.390;8.616;2023-05-07T02:14:39;4.82;;;1.52;;
37677;SDS011;23517;50.390;8.616;2023-05-07T02:17:07;6.05;;;1.30;;
37677;SDS011;23517;50.390;8.616;2023-05-07T02:19:33;3.40;;;1.55;;
37677;SDS011;23517;50.390;8.616;2023-05-07T02:22:01;2.28;;;1.25;;
37677;SDS011;23517;50.390;8.616;2023-05-07T02:24:27;1.58;;;1.48;;
37677;SDS011;23517;50.390;8.616;2023-05-07T02:26:54;3.22;;;1.58;;
37677;SDS011;23517;50.390;8.616;2023-05-07T02:29:20;3.05;;;1.40;;
37677;SDS011;23517;50.390;8.616;2023-05-07T02:31:47;2.30;;;1.67;;
37677;SDS011;23517;50.390;8.616;2023-05-07T02:34:19;2.03;;;1.40;;
37677;SDS011;23517;50.390;8.616;2023-05-07T02:36:45;2.33;;;1.40;;
37677;SDS011;23517;50.390;8.616;2023-05-07T02:39:12;2.00;;;1.30;;
37677;SDS011;23517;50.390;8.616;2023-05-07T02:41:39;1.90;;;1.70;;
37677;SDS011;23517;50.390;8.616;2023-05-07T02:44:06;7.03;;;1.70;;
37677;SDS011;23517;50.390;8.616;2023-05-07T02:46:32;3.83;;;1.60;;
37677;SDS011;23517;50.390;8.616;2023-05-07T02:48:59;1.90;;;1.70;;
37677;SDS011;23517;50.390;8.616;2023-05-07T02:51:26;2.15;;;1.52;;
37677;SDS011;23517;50.390;8.616;2023-05-07T02:53:53;10.30;;;1.85;;
37677;SDS011;23517;50.390;8.616;2023-05-07T02:56:19;4.57;;;1.70;;
37677;SDS011;23517;50.390;8.616;2023-05-07T02:58:47;5.38;;;1.75;;
37677;SDS011;23517;50.390;8.616;2023-05-07T03:01:13;2.88;;;1.60;;
37677;SDS011;23517;50.390;8.616;2023-05-07T03:03:40;2.50;;;1.35;;
37677;SDS011;23517;50.390;8.616;2023-05-07T03:06:07;1.70;;;1.50;;
37677;SDS011;23517;50.390;8.616;2023-05-07T03:08:34;3.80;;;1.40;;
37677;SDS011;23517;50.390;8.616;2023-05-07T03:11:00;1.50;;;1.20;;
37677;SDS011;23517;50.390;8.616;2023-05-07T03:13:30;2.35;;;1.25;;
37677;SDS011;23517;50.390;8.616;2023-05-07T03:15:56;3.38;;;1.42;;
37677;SDS011;23517;50.390;8.616;2023-05-07T03:18:23;1.60;;;1.50;;
37677;SDS011;23517;50.390;8.616;2023-05-07T03:20:50;3.05;;;1.55;;
37677;SDS011;23517;50.390;8.616;2023-05-07T03:23:17;2.10;;;1.60;;
37677;SDS011;23517;50.390;8.616;2023-05-07T03:25:44;3.55;;;2.00;;
37677;SDS011;23517;50.390;8.616;2023-05-07T03:28:11;3.10;;;1.83;;
37677;SDS011;23517;50.390;8.616;2023-05-07T03:30:37;4.22;;;1.60;;
37677;SDS011;23517;50.390;8.616;2023-05-07T03:33:04;2.65;;;1.50;;
37677;SDS011;23517;50.390;8.616;2023-05-07T03:35:31;2.65;;;1.63;;
37677;SDS011;23517;50.390;8.616;2023-05-07T03:37:57;3.53;;;1.75;;
37677;SDS011;23517;50.390;8.616;2023-05-07T03:40:24;2.20;;;1.45;;
37677;SDS011;23517;50.390;8.616;2023-05-07T03:42:51;1.50;;;1.40;;
37677;SDS011;23517;50.390;8.616;2023-05-07T03:45:17;1.80;;;1.50;;
37677;SDS011;23517;50.390;8.616;2023-05-07T03:47:48;2.65;;;1.50;;
37677;SDS011;23517;50.390;8.616;2023-05-07T03:50:15;2.97;;;1.55;;
37677;SDS011;23517;50.390;8.616;2023-05-07T03:52:41;3.75;;;1.67;;
37677;SDS011;23517;50.390;8.616;2023-05-07T03:55:08;1.60;;;1.50;;
37677;SDS011;23517;50.390;8.616;2023-05-07T03:57:35;2.72;;;1.33;;
37677;SDS011;23517;50.390;8.616;2023-05-07T04:00:02;5.47;;;1.85;;
37677;SDS011;23517;50.390;8.616;2023-05-07T04:02:30;4.28;;;2.20;;
37677;SDS011;23517;50.390;8.616;2023-05-07T04:04:57;1.90;;;1.40;;
37677;SDS011;23517;50.390;8.616;2023-05-07T04:07:23;5.50;;;1.40;;
37677;SDS011;23517;50.390;8.616;2023-05-07T04:09:50;4.35;;;1.40;;
37677;SDS011;23517;50.390;8.616;2023-05-07T04:12:17;3.72;;;1.63;;
37677;SDS011;23517;50.390;8.616;2023-05-07T04:14:43;1.60;;;1.45;;
37677;SDS011;23517;50.390;8.616;2023-05-07T04:17:11;1.88;;;1.55;;
37677;SDS011;23517;50.390;8.616;2023-05-07T04:19:37;3.10;;;1.38;;
37677;SDS011;23517;50.390;8.616;2023-05-07T04:22:04;1.75;;;1.60;;
37677;SDS011;23517;50.390;8.616;2023-05-07T04:24:31;4.18;;;1.73;;
37677;SDS011;23517;50.390;8.616;2023-05-07T04:27:01;3.50;;;1.92;;
37677;SDS011;23517;50.390;8.616;2023-05-07T04:29:28;5.35;;;1.65;;
37677;SDS011;23517;50.390;8.616;2023-05-07T04:31:55;2.90;;;1.50;;
37677;SDS011;23517;50.390;8.616;2023-05-07T04:34:22;4.43;;;1.50;;
37677;SDS011;23517;50.390;8.616;2023-05-07T04:36:49;5.72;;;1.95;;
37677;SDS011;23517;50.390;8.616;2023-05-07T04:39:15;2.47;;;1.80;;
37677;SDS011;23517;50.390;8.616;2023-05-07T04:41:42;1.83;;;1.55;;
37677;SDS011;23517;50.390;8.616;2023-05-07T04:44:08;3.45;;;1.80;;
37677;SDS011;23517;50.390;8.616;2023-05-07T04:46:35;2.58;;;1.95;;
37677;SDS011;23517;50.390;8.616;2023-05-07T04:49:02;2.83;;;1.83;;
37677;SDS011;23517;50.390;8.616;2023-05-07T04:51:29;3.38;;;1.90;;
37677;SDS011;23517;50.390;8.616;2023-05-07T04:53:56;2.83;;;1.35;;
37677;SDS011;23517;50.390;8.616;2023-05-07T04:56:22;1.75;;;1.60;;
37677;SDS011;23517;50.390;8.616;2023-05-07T04:58:49;4.07;;;1.50;;
37677;SDS011;23517;50.390;8.616;2023-05-07T05:01:16;3.13;;;1.55;;
37677;SDS011;23517;50.390;8.616;2023-05-07T05:03:42;2.00;;;1.80;;
37677;SDS011;23517;50.390;8.616;2023-05-07T05:06:09;8.52;;;2.03;;
37677;SDS011;23517;50.390;8.616;2023-05-07T05:08:36;4.70;;;1.90;;
37677;SDS011;23517;50.390;8.616;2023-05-07T05:11:03;2.80;;;1.50;;
37677;SDS011;23517;50.390;8.616;2023-05-07T05:13:30;2.20;;;1.70;;
37677;SDS011;23517;50.390;8.616;2023-05-07T05:15:57;2.15;;;1.70;;
37677;SDS011;23517;50.390;8.616;2023-05-07T05:18:23;1.75;;;1.65;;
37677;SDS011;23517;50.390;8.616;2023-05-07T05:20:51;1.85;;;1.55;;
37677;SDS011;23517;50.390;8.616;2023-05-07T05:23:17;2.85;;;1.88;;
37677;SDS011;23517;50.390;8.616;2023-05-07T05:25:45;2.35;;;1.65;;
37677;SDS011;23517;50.390;8.616;2023-05-07T05:28:11;3.42;;;1.92;;
37677;SDS011;23517;50.390;8.616;2023-05-07T05:30:39;2.92;;;2.10;;
37677;SDS011;23517;50.390;8.616;2023-05-07T05:33:06;2.97;;;1.90;;
37677;SDS011;23517;50.390;8.616;2023-05-07T05:35:32;4.50;;;3.15;;
37677;SDS011;23517;50.390;8.616;2023-05-07T05:38:00;7.20;;;5.93;;
37677;SDS011;23517;50.390;8.616;2023-05-07T05:40:28;7.60;;;3.88;;
37677;SDS011;23517;50.390;8.616;2023-05-07T05:42:54;4.75;;;3.22;;
37677;SDS011;23517;50.390;8.616;2023-05-07T05:45:21;4.20;;;3.05;;
37677;SDS011;23517;50.390;8.616;2023-05-07T05:47:48;2.92;;;2.63;;
37677;SDS011;23517;50.390;8.616;2023-05-07T05:50:15;5.28;;;3.42;;
37677;SDS011;23517;50.390;8.616;2023-05-07T05:52:44;6.35;;;3.22;;
37677;SDS011;23517;50.390;8.616;2023-05-07T05:55:11;4.43;;;3.72;;
37677;SDS011;23517;50.390;8.616;2023-05-07T05:57:37;2.85;;;2.40;;
37677;SDS011;23517;50.390;8.616;2023-05-07T06:00:04;5.60;;;2.33;;
37677;SDS011;23517;50.390;8.616;2023-05-07T06:02:32;4.65;;;1.90;;
37677;SDS011;23517;50.390;8.616;2023-05-07T06:04:59;3.22;;;2.00;;
37677;SDS011;23517;50.390;8.616;2023-05-07T06:07:26;3.03;;;2.40;;
37677;SDS011;23517;50.390;8.616;2023-05-07T06:09:52;3.28;;;2.17;;
37677;SDS011;23517;50.390;8.616;2023-05-07T06:12:19;3.40;;;2.30;;
37677;SDS011;23517;50.390;8.616;2023-05-07T06:14:46;2.65;;;2.35;;
37677;SDS011;23517;50.390;8.616;2023-05-07T06:17:13;3.50;;;2.58;;
37677;SDS011;23517;50.390;8.616;2023-05-07T06:19:40;3.05;;;2.63;;
37677;SDS011;23517;50.390;8.616;2023-05-07T06:22:06;3.60;;;2.53;;
37677;SDS011;23517;50.390;8.616;2023-05-07T06:24:35;4.18;;;2.67;;
37677;SDS011;23517;50.390;8.616;2023-05-07T06:27:02;3.33;;;2.70;;
37677;SDS011;23517;50.390;8.616;2023-05-07T06:29:28;7.13;;;3.00;;
37677;SDS011;23517;50.390;8.616;2023-05-07T06:31:57;3.50;;;2.95;;
37677;SDS011;23517;50.390;8.616;2023-05-07T06:34:34;5.47;;;2.70;;
37677;SDS011;23517;50.390;8.616;2023-05-07T06:37:01;4.05;;;2.75;;
37677;SDS011;23517;50.390;8.616;2023-05-07T06:39:28;4.15;;;2.80;;
37677;SDS011;23517;50.390;8.616;2023-05-07T06:41:55;4.68;;;2.70;;
37677;SDS011;23517;50.390;8.616;2023-05-07T06:44:21;3.92;;;2.53;;
37677;SDS011;23517;50.390;8.616;2023-05-07T06:46:48;3.88;;;2.65;;
37677;SDS011;23517;50.390;8.616;2023-05-07T06:49:15;3.53;;;2.45;;
37677;SDS011;23517;50.390;8.616;2023-05-07T06:51:41;5.00;;;2.60;;
37677;SDS011;23517;50.390;8.616;2023-05-07T06:54:08;3.20;;;2.42;;
37677;SDS011;23517;50.390;8.616;2023-05-07T06:56:35;2.72;;;2.17;;
37677;SDS011;23517;50.390;8.616;2023-05-07T06:59:01;4.35;;;2.38;;
37677;SDS011;23517;50.390;8.616;2023-05-07T07:01:28;2.15;;;1.95;;
37677;SDS011;23517;50.390;8.616;2023-05-07T07:03:56;2.80;;;2.55;;
37677;SDS011;23517;50.390;8.616;2023-05-07T07:06:22;2.92;;;2.47;;
37677;SDS011;23517;50.390;8.616;2023-05-07T07:08:49;4.13;;;2.95;;
37677;SDS011;23517;50.390;8.616;2023-05-07T07:11:16;3.30;;;2.45;;
37677;SDS011;23517;50.390;8.616;2023-05-07T07:13:42;6.25;;;2.50;;
37677;SDS011;23517;50.390;8.616;2023-05-07T07:16:09;4.07;;;2.75;;
37677;SDS011;23517;50.390;8.616;2023-05-07T07:18:36;4.00;;;2.88;;
37677;SDS011;23517;50.390;8.616;2023-05-07T07:21:03;5.15;;;3.28;;
37677;SDS011;23517;50.390;8.616;2023-05-07T07:23:29;4.50;;;3.13;;
37677;SDS011;23517;50.390;8.616;2023-05-07T07:25:56;7.07;;;3.22;;
37677;SDS011;23517;50.390;8.616;2023-05-07T07:28:23;3.88;;;2.95;;
37677;SDS011;23517;50.390;8.616;2023-05-07T07:30:49;3.65;;;2.85;;
37677;SDS011;23517;50.390;8.616;2023-05-07T07:33:16;5.93;;;2.92;;
37677;SDS011;23517;50.390;8.616;2023-05-07T07:35:43;3.75;;;3.28;;
37677;SDS011;23517;50.390;8.616;2023-05-07T07:38:09;3.25;;;2.72;;
37677;SDS011;23517;50.390;8.616;2023-05-07T07:40:36;4.75;;;2.80;;
37677;SDS011;23517;50.390;8.616;2023-05-07T07:43:03;3.78;;;3.03;;
37677;SDS011;23517;50.390;8.616;2023-05-07T07:45:30;3.95;;;3.20;;
37677;SDS011;23517;50.390;8.616;2023-05-07T07:47:57;5.60;;;3.67;;
37677;SDS011;23517;50.390;8.616;2023-05-07T07:50:24;3.63;;;2.90;;
37677;SDS011;23517;50.390;8.616;2023-05-07T07:52:57;3.63;;;2.60;;
37677;SDS011;23517;50.390;8.616;2023-05-07T07:55:23;3.22;;;2.92;;
37677;SDS011;23517;50.390;8.616;2023-05-07T07:57:50;5.13;;;3.25;;
37677;SDS011;23517;50.390;8.616;2023-05-07T08:00:17;4.50;;;2.88;;
37677;SDS011;23517;50.390;8.616;2023-05-07T08:02:43;4.75;;;3.47;;
37677;SDS011;23517;50.390;8.616;2023-05-07T08:05:10;4.65;;;3.33;;
37677;SDS011;23517;50.390;8.616;2023-05-07T08:07:37;5.20;;;3.22;;
37677;SDS011;23517;50.390;8.616;2023-05-07T08:10:04;5.75;;;3.35;;
37677;SDS011;23517;50.390;8.616;2023-05-07T08:12:30;4.85;;;4.10;;
37677;SDS011;23517;50.390;8.616;2023-05-07T08:14:57;7.70;;;3.70;;
37677;SDS011;23517;50.390;8.616;2023-05-07T08:17:24;5.07;;;3.97;;
37677;SDS011;23517;50.390;8.616;2023-05-07T08:19:51;4.47;;;3.80;;
37677;SDS011;23517;50.390;8.616;2023-05-07T08:22:17;4.43;;;3.63;;
37677;SDS011;23517;50.390;8.616;2023-05-07T08:24:44;7.60;;;3.55;;
37677;SDS011;23517;50.390;8.616;2023-05-07T08:27:11;3.70;;;3.40;;
37677;SDS011;23517;50.390;8.616;2023-05-07T08:29:37;6.95;;;3.33;;
37677;SDS011;23517;50.390;8.616;2023-05-07T08:32:04;4.60;;;3.50;;
37677;SDS011;23517;50.390;8.616;2023-05-07T08:34:31;3.92;;;3.53;;
37677;SDS011;23517;50.390;8.616;2023-05-07T08:36:57;3.92;;;3.28;;
37677;SDS011;23517;50.390;8.616;2023-05-07T08:39:24;6.70;;;4.10;;
37677;SDS011;23517;50.390;8.616;2023-05-07T08:41:51;5.75;;;3.70;;
37677;SDS011;23517;50.390;8.616;2023-05-07T08:44:23;6.00;;;3.40;;
37677;SDS011;23517;50.390;8.616;2023-05-07T08:46:56;5.57;;;3.83;;
37677;SDS011;23517;50.390;8.616;2023-05-07T08:49:24;4.68;;;3.88;;
37677;SDS011;23517;50.390;8.616;2023-05-07T08:51:50;4.82;;;3.53;;
37677;SDS011;23517;50.390;8.616;2023-05-07T08:54:18;6.95;;;4.10;;
37677;SDS011;23517;50.390;8.616;2023-05-07T08:56:45;5.38;;;3.28;;
37677;SDS011;23517;50.390;8.616;2023-05-07T08:59:12;4.78;;;3.78;;
37677;SDS011;23517;50.390;8.616;2023-05-07T09:01:39;4.93;;;3.70;;
37677;SDS011;23517;50.390;8.616;2023-05-07T09:04:06;4.60;;;3.33;;
37677;SDS011;23517;50.390;8.616;2023-05-07T09:06:33;5.63;;;3.65;;
37677;SDS011;23517;50.390;8.616;2023-05-07T09:09:00;4.43;;;3.30;;
37677;SDS011;23517;50.390;8.616;2023-05-07T09:11:28;4.07;;;3.67;;
37677;SDS011;23517;50.390;8.616;2023-05-07T09:13:56;3.47;;;3.17;;
37677;SDS011;23517;50.390;8.616;2023-05-07T09:16:25;4.55;;;3.20;;
37677;SDS011;23517;50.390;8.616;2023-05-07T09:18:53;5.28;;;3.08;;
37677;SDS011;23517;50.390;8.616;2023-05-07T09:21:20;7.55;;;3.65;;
37677;SDS011;23517;50.390;8.616;2023-05-07T09:23:52;4.38;;;3.45;;
37677;SDS011;23517;50.390;8.616;2023-05-07T09:26:21;5.80;;;2.65;;
37677;SDS011;23517;50.390;8.616;2023-05-07T09:28:49;2.70;;;2.28;;
37677;SDS011;23517;50.390;8.616;2023-05-07T09:31:17;6.32;;;2.95;;
37677;SDS011;23517;50.390;8.616;2023-05-07T09:33:46;3.28;;;2.28;;
37677;SDS011;23517;50.390;8.616;2023-05-07T09:36:13;4.47;;;3.22;;
37677;SDS011;23517;50.390;8.616;2023-05-07T09:38:40;4.57;;;2.85;;
37677;SDS011;23517;50.390;8.616;2023-05-07T09:41:09;5.40;;;3.00;;
37677;SDS011;23517;50.390;8.616;2023-05-07T09:43:39;5.80;;;3.08;;
37677;SDS011;23517;50.390;8.616;2023-05-07T09:46:08;6.68;;;3.00;;
37677;SDS011;23517;50.390;8.616;2023-05-07T09:48:41;4.47;;;3.25;;
37677;SDS011;23517;50.390;8.616;2023-05-07T09:51:11;3.63;;;2.20;;
37677;SDS011;23517;50.390;8.616;2023-05-07T09:53:53;5.93;;;2.70;;
37677;SDS011;23517;50.390;8.616;2023-05-07T09:56:20;3.97;;;2.63;;
37677;SDS011;23517;50.390;8.616;2023-05-07T09:58:47;3.45;;;2.80;;
37677;SDS011;23517;50.390;8.616;2023-05-07T10:01:15;4.47;;;2.90;;
37677;SDS011;23517;50.390;8.616;2023-05-07T10:03:45;3.78;;;3.00;;
37677;SDS011;23517;50.390;8.616;2023-05-07T10:06:13;4.18;;;2.92;;
37677;SDS011;23517;50.390;8.616;2023-05-07T10:08:40;4.75;;;2.83;;
37677;SDS011;23517;50.390;8.616;2023-05-07T10:11:09;3.85;;;2.85;;
37677;SDS011;23517;50.390;8.616;2023-05-07T10:13:36;3.03;;;2.70;;
37677;SDS011;23517;50.390;8.616;2023-05-07T10:16:04;4.60;;;2.97;;
37677;SDS011;23517;50.390;8.616;2023-05-07T10:18:31;7.70;;;3.13;;
37677;SDS011;23517;50.390;8.616;2023-05-07T10:21:04;6.13;;;3.00;;
37677;SDS011;23517;50.390;8.616;2023-05-07T10:23:37;5.68;;;3.83;;
37677;SDS011;23517;50.390;8.616;2023-05-07T10:26:06;6.38;;;4.18;;
37677;SDS011;23517;50.390;8.616;2023-05-07T10:28:36;4.60;;;3.70;;
37677;SDS011;23517;50.390;8.616;2023-05-07T10:34:37;4.82;;;4.00;;
37677;SDS011;23517;50.390;8.616;2023-05-07T10:37:09;7.07;;;4.22;;
37677;SDS011;23517;50.390;8.616;2023-05-07T10:39:37;8.45;;;3.80;;
37677;SDS011;23517;50.390;8.616;2023-05-07T10:42:10;4.57;;;4.18;;
37677;SDS011;23517;50.390;8.616;2023-05-07T10:44:38;5.72;;;4.20;;
37677;SDS011;23517;50.390;8.616;2023-05-07T10:47:09;8.35;;;3.85;;
37677;SDS011;23517;50.390;8.616;2023-05-07T10:49:46;4.40;;;3.97;;
37677;SDS011;23517;50.390;8.616;2023-05-07T10:52:32;5.18;;;4.32;;
37677;SDS011;23517;50.390;8.616;2023-05-07T10:57:44;6.20;;;3.88;;
37677;SDS011;23517;50.390;8.616;2023-05-07T11:03:04;6.28;;;3.95;;
37677;SDS011;23517;50.390;8.616;2023-05-07T11:05:33;6.97;;;4.28;;
37677;SDS011;23517;50.390;8.616;2023-05-07T11:08:03;6.57;;;4.20;;
37677;SDS011;23517;50.390;8.616;2023-05-07T11:10:53;5.22;;;4.20;;
37677;SDS011;23517;50.390;8.616;2023-05-07T11:16:19;6.57;;;4.25;;
37677;SDS011;23517;50.390;8.616;2023-05-07T11:18:49;7.47;;;4.47;;
37677;SDS011;23517;50.390;8.616;2023-05-07T11:21:38;6.28;;;4.18;;
37677;SDS011;23517;50.390;8.616;2023-05-07T11:24:08;5.82;;;4.00;;
37677;SDS011;23517;50.390;8.616;2023-05-07T11:29:11;6.90;;;4.88;;
37677;SDS011;23517;50.390;8.616;2023-05-07T11:31:50;6.28;;;4.03;;
37677;SDS011;23517;50.390;8.616;2023-05-07T11:34:22;10.45;;;4.10;;
37677;SDS011;23517;50.390;8.616;2023-05-07T11:36:52;5.90;;;3.42;;
37677;SDS011;23517;50.390;8.616;2023-05-07T11:42:00;4.15;;;3.75;;
37677;SDS011;23517;50.390;8.616;2023-05-07T11:44:43;4.55;;;3.67;;
37677;SDS011;23517;50.390;8.616;2023-05-07T11:47:16;6.35;;;3.60;;
37677;SDS011;23517;50.390;8.616;2023-05-07T11:49:48;5.22;;;4.07;;
37677;SDS011;23517;50.390;8.616;2023-05-07T11:52:17;6.47;;;3.80;;
37677;SDS011;23517;50.390;8.616;2023-05-07T11:54:55;6.38;;;3.78;;
37677;SDS011;23517;50.390;8.616;2023-05-07T11:57:24;8.05;;;4.30;;
37677;SDS011;23517;50.390;8.616;2023-05-07T11:59:54;6.38;;;4.55;;
37677;SDS011;23517;50.390;8.616;2023-05-07T12:02:22;6.85;;;3.85;;
37677;SDS011;23517;50.390;8.616;2023-05-07T12:04:51;3.92;;;3.53;;
37677;SDS011;23517;50.390;8.616;2023-05-07T12:07:19;6.95;;;3.58;;
37677;SDS011;23517;50.390;8.616;2023-05-07T12:09:46;10.25;;;3.97;;
37677;SDS011;23517;50.390;8.616;2023-05-07T12:12:13;4.78;;;3.60;;
37677;SDS011;23517;50.390;8.616;2023-05-07T12:14:42;4.63;;;3.88;;
37677;SDS011;23517;50.390;8.616;2023-05-07T12:17:11;4.20;;;3.85;;
37677;SDS011;23517;50.390;8.616;2023-05-07T12:19:39;5.05;;;3.85;;
37677;SDS011;23517;50.390;8.616;2023-05-07T12:22:09;6.50;;;3.22;;
37677;SDS011;23517;50.390;8.616;2023-05-07T12:27:23;4.60;;;3.58;;
37677;SDS011;23517;50.390;8.616;2023-05-07T12:29:51;6.18;;;3.53;;
37677;SDS011;23517;50.390;8.616;2023-05-07T12:32:19;5.90;;;3.78;;
37677;SDS011;23517;50.390;8.616;2023-05-07T12:34:50;6.72;;;3.97;;
37677;SDS011;23517;50.390;8.616;2023-05-07T12:37:22;5.28;;;3.58;;
37677;SDS011;23517;50.390;8.616;2023-05-07T12:40:03;4.70;;;3.45;;
37677;SDS011;23517;50.390;8.616;2023-05-07T12:42:37;3.63;;;3.33;;
37677;SDS011;23517;50.390;8.616;2023-05-07T12:47:47;5.30;;;3.38;;
37677;SDS011;23517;50.390;8.616;2023-05-07T12:50:14;4.60;;;3.50;;
37677;SDS011;23517;50.390;8.616;2023-05-07T12:52:42;5.15;;;2.95;;
37677;SDS011;23517;50.390;8.616;2023-05-07T12:55:12;2.85;;;2.63;;
37677;SDS011;23517;50.390;8.616;2023-05-07T12:57:42;3.00;;;2.70;;
37677;SDS011;23517;50.390;8.616;2023-05-07T13:00:12;4.93;;;2.72;;
37677;SDS011;23517;50.390;8.616;2023-05-07T13:02:40;4.88;;;2.50;;
37677;SDS011;23517;50.390;8.616;2023-05-07T13:05:10;4.10;;;2.20;;
37677;SDS011;23517;50.390;8.616;2023-05-07T13:07:37;4.38;;;2.22;;
37677;SDS011;23517;50.390;8.616;2023-05-07T13:10:06;2.90;;;2.20;;
37677;SDS011;23517;50.390;8.616;2023-05-07T13:12:34;2.20;;;2.00;;
37677;SDS011;23517;50.390;8.616;2023-05-07T13:15:01;4.97;;;2.25;;
37677;SDS011;23517;50.390;8.616;2023-05-07T13:17:27;7.80;;;2.63;;
37677;SDS011;23517;50.390;8.616;2023-05-07T13:19:54;6.38;;;2.85;;
37677;SDS011;23517;50.390;8.616;2023-05-07T13:22:21;4.28;;;2.47;;
37677;SDS011;23517;50.390;8.616;2023-05-07T13:24:47;2.67;;;2.40;;
37677;SDS011;23517;50.390;8.616;2023-05-07T13:27:14;5.35;;;2.10;;
37677;SDS011;23517;50.390;8.616;2023-05-07T13:29:41;6.50;;;2.10;;
37677;SDS011;23517;50.390;8.616;2023-05-07T13:32:08;3.85;;;1.73;;
37677;SDS011;23517;50.390;8.616;2023-05-07T13:34:34;3.97;;;2.83;;
37677;SDS011;23517;50.390;8.616;2023-05-07T13:37:01;4.20;;;2.33;;
37677;SDS011;23517;50.390;8.616;2023-05-07T13:39:27;3.00;;;2.30;;
37677;SDS011;23517;50.390;8.616;2023-05-07T13:41:54;3.30;;;2.10;;
37677;SDS011;23517;50.390;8.616;2023-05-07T13:44:21;3.50;;;2.58;;
37677;SDS011;23517;50.390;8.616;2023-05-07T13:46:47;3.95;;;2.40;;
37677;SDS011;23517;50.390;8.616;2023-05-07T13:49:14;2.00;;;1.80;;
37677;SDS011;23517;50.390;8.616;2023-05-07T13:51:41;3.22;;;2.30;;
37677;SDS011;23517;50.390;8.616;2023-05-07T13:54:08;5.22;;;2.00;;
37677;SDS011;23517;50.390;8.616;2023-05-07T13:56:34;16.02;;;3.05;;
37677;SDS011;23517;50.390;8.616;2023-05-07T13:59:01;2.40;;;2.15;;
37677;SDS011;23517;50.390;8.616;2023-05-07T14:01:28;5.68;;;2.22;;
37677;SDS011;23517;50.390;8.616;2023-05-07T14:03:55;6.05;;;2.75;;
37677;SDS011;23517;50.390;8.616;2023-05-07T14:06:23;6.20;;;2.25;;
37677;SDS011;23517;50.390;8.616;2023-05-07T14:08:50;4.05;;;2.10;;
37677;SDS011;23517;50.390;8.616;2023-05-07T14:11:17;2.40;;;2.15;;
37677;SDS011;23517;50.390;8.616;2023-05-07T14:13:44;2.33;;;1.90;;
37677;SDS011;23517;50.390;8.616;2023-05-07T14:16:11;2.17;;;1.95;;
37677;SDS011;23517;50.390;8.616;2023-05-07T14:18:37;2.45;;;1.63;;
37677;SDS011;23517;50.390;8.616;2023-05-07T14:21:05;3.33;;;1.60;;
37677;SDS011;23517;50.390;8.616;2023-05-07T14:23:32;2.35;;;1.73;;
37677;SDS011;23517;50.390;8.616;2023-05-07T14:25:59;2.53;;;1.83;;
37677;SDS011;23517;50.390;8.616;2023-05-07T14:28:25;1.73;;;1.63;;
37677;SDS011;23517;50.390;8.616;2023-05-07T14:30:52;2.08;;;1.70;;
37677;SDS011;23517;50.390;8.616;2023-05-07T14:33:18;6.68;;;1.92;;
37677;SDS011;23517;50.390;8.616;2023-05-07T14:35:48;1.33;;;1.23;;
37677;SDS011;23517;50.390;8.616;2023-05-07T14:38:16;3.47;;;1.80;;
37677;SDS011;23517;50.390;8.616;2023-05-07T14:40:42;2.33;;;1.60;;
37677;SDS011;23517;50.390;8.616;2023-05-07T14:43:13;1.63;;;1.52;;
37677;SDS011;23517;50.390;8.616;2023-05-07T14:45:40;2.75;;;1.80;;
37677;SDS011;23517;50.390;8.616;2023-05-07T14:48:07;1.70;;;1.40;;
37677;SDS011;23517;50.390;8.616;2023-05-07T14:50:35;4.28;;;1.90;;
37677;SDS011;23517;50.390;8.616;2023-05-07T14:53:02;2.45;;;1.73;;
37677;SDS011;23517;50.390;8.616;2023-05-07T14:55:28;1.60;;;1.50;;
37677;SDS011;23517;50.390;8.616;2023-05-07T14:57:55;3.08;;;2.00;;
37677;SDS011;23517;50.390;8.616;2023-05-07T15:00:22;3.67;;;1.50;;
37677;SDS011;23517;50.390;8.616;2023-05-07T15:02:48;4.00;;;1.73;;
37677;SDS011;23517;50.390;8.616;2023-05-07T15:05:15;2.80;;;1.63;;
37677;SDS011;23517;50.390;8.616;2023-05-07T15:07:43;1.92;;;1.80;;
37677;SDS011;23517;50.390;8.616;2023-05-07T15:10:11;3.70;;;1.80;;
37677;SDS011;23517;50.390;8.616;2023-05-07T15:12:37;1.73;;;1.60;;
37677;SDS011;23517;50.390;8.616;2023-05-07T15:15:04;2.83;;;1.60;;
37677;SDS011;23517;50.390;8.616;2023-05-07T15:17:32;2.72;;;1.60;;